sensor_id;sensor_type;location;lat;lon;timestamp;pressure;altitude;pressure_sealevel;temperature;humidity
39443;BME280;25147;52.142;9.960;2023-04-28T00:02:20;100300.75;;;3.53;67.90
39443;BME280;25147;52.142;9.960;2023-04-28T00:04:47;100722.31;;;6.08;68.14
39443;BME280;25147;52.142;9.960;2023-04-28T00:07:14;100617.88;;;5.43;68.60
39443;BME280;25147;52.142;9.960;2023-04-28T00:09:42;100730.06;;;6.03;69.41
39443;BME280;25147;52.142;9.960;2023-04-28T00:12:08;100537.91;;;4.97;69.93
39443;BME280;25147;52.142;9.960;2023-04-28T00:14:35;100537.06;;;4.98;70.04
39443;BME280;25147;52.142;9.960;2023-04-28T00:17:02;100515.22;;;4.73;70.21
39443;BME280;25147;52.142;9.960;2023-04-28T00:19:29;100592.66;;;5.27;70.27
39443;BME280;25147;52.142;9.960;2023-04-28T00:21:58;100708.38;;;5.96;69.61
39443;BME280;25147;52.142;9.960;2023-04-28T00:24:25;100610.06;;;5.38;69.02
39443;BME280;25147;52.142;9.960;2023-04-28T00:26:54;100696.25;;;5.97;69.04
39443;BME280;25147;52.142;9.960;2023-04-28T00:29:22;100690.19;;;5.98;69.92
39443;BME280;25147;52.142;9.960;2023-04-28T00:31:49;100524.97;;;5.00;70.80
39443;BME280;25147;52.142;9.960;2023-04-28T00:34:15;100509.41;;;4.99;70.32
39443;BME280;25147;52.142;9.960;2023-04-28T00:36:42;100672.88;;;6.01;71.11
39443;BME280;25147;52.142;9.960;2023-04-28T00:39:09;100512.88;;;5.02;72.84
39443;BME280;25147;52.142;9.960;2023-04-28T00:41:36;100680.72;;;6.05;71.96
39443;BME280;25147;52.142;9.960;2023-04-28T00:44:04;100216.75;;;3.20;70.36
39443;BME280;25147;52.142;9.960;2023-04-28T00:46:32;100709.25;;;6.00;69.60
39443;BME280;25147;52.142;9.960;2023-04-28T00:48:59;100437.25;;;4.50;69.10
39443;BME280;25147;52.142;9.960;2023-04-28T00:51:27;100643.16;;;5.67;68.88
39443;BME280;25147;52.142;9.960;2023-04-28T00:53:55;100407.81;;;4.45;68.76
39443;BME280;25147;52.142;9.960;2023-04-28T00:56:23;100652.91;;;5.96;69.65
39443;BME280;25147;52.142;9.960;2023-04-28T00:58:52;100402.66;;;4.50;69.98
39443;BME280;25147;52.142;9.960;2023-04-28T01:01:20;100574.72;;;5.56;70.10
39443;BME280;25147;52.142;9.960;2023-04-28T01:03:47;100650.34;;;6.02;69.95
39443;BME280;25147;52.142;9.960;2023-04-28T01:06:15;100662.53;;;6.12;70.51
39443;BME280;25147;52.142;9.960;2023-04-28T01:08:42;100567.78;;;5.56;70.43
39443;BME280;25147;52.142;9.960;2023-04-28T01:11:09;100650.47;;;6.17;70.99
39443;BME280;25147;52.142;9.960;2023-04-28T01:13:38;100644.38;;;6.18;69.62
39443;BME280;25147;52.142;9.960;2023-04-28T01:16:06;100408.03;;;4.71;70.00
39443;BME280;25147;52.142;9.960;2023-04-28T01:18:34;100435.81;;;4.88;69.93
39443;BME280;25147;52.142;9.960;2023-04-28T01:21:01;100644.44;;;6.23;69.97
39443;BME280;25147;52.142;9.960;2023-04-28T01:23:29;100565.28;;;5.78;70.68
39443;BME280;25147;52.142;9.960;2023-04-28T01:25:57;100551.41;;;5.71;70.39
39443;BME280;25147;52.142;9.960;2023-04-28T01:28:24;100647.91;;;6.28;70.63
39443;BME280;25147;52.142;9.960;2023-04-28T01:30:50;100550.56;;;5.71;69.63
39443;BME280;25147;52.142;9.960;2023-04-28T01:33:17;100601.84;;;5.99;68.87
39443;BME280;25147;52.142;9.960;2023-04-28T01:35:44;100643.59;;;6.30;68.58
39443;BME280;25147;52.142;9.960;2023-04-28T01:38:11;100480.22;;;5.37;68.74
39443;BME280;25147;52.142;9.960;2023-04-28T01:40:37;100460.28;;;5.28;68.40
39443;BME280;25147;52.142;9.960;2023-04-28T01:43:06;100475.03;;;5.37;68.32
39443;BME280;25147;52.142;9.960;2023-04-28T01:45:32;100598.47;;;6.19;68.42
39443;BME280;25147;52.142;9.960;2023-04-28T01:47:59;100467.28;;;5.35;68.11
39443;BME280;25147;52.142;9.960;2023-04-28T01:50:26;100359.59;;;4.72;68.60
39443;BME280;25147;52.142;9.960;2023-04-28T01:52:53;100529.81;;;5.78;69.27
39443;BME280;25147;52.142;9.960;2023-04-28T01:55:20;100456.84;;;5.29;70.09
39443;BME280;25147;52.142;9.960;2023-04-28T01:57:47;100488.03;;;5.38;70.59
39443;BME280;25147;52.142;9.960;2023-04-28T02:00:16;100390.81;;;4.86;70.50
39443;BME280;25147;52.142;9.960;2023-04-28T02:02:43;100551.41;;;5.68;71.26
39443;BME280;25147;52.142;9.960;2023-04-28T02:05:10;100415.22;;;5.14;70.85
39443;BME280;25147;52.142;9.960;2023-04-28T02:07:37;100597.59;;;6.18;70.49
39443;BME280;25147;52.142;9.960;2023-04-28T02:10:04;100596.72;;;6.16;70.61
39443;BME280;25147;52.142;9.960;2023-04-28T02:12:32;100589.78;;;6.15;71.41
39443;BME280;25147;52.142;9.960;2023-04-28T02:14:59;100492.47;;;5.55;70.04
39443;BME280;25147;52.142;9.960;2023-04-28T02:17:28;100600.19;;;6.11;70.17
39443;BME280;25147;52.142;9.960;2023-04-28T02:19:55;100416.88;;;5.04;70.00
39443;BME280;25147;52.142;9.960;2023-04-28T02:22:22;100548.03;;;5.83;70.13
39443;BME280;25147;52.142;9.960;2023-04-28T02:24:50;100317.97;;;4.44;70.20
39443;BME280;25147;52.142;9.960;2023-04-28T02:27:16;100606.16;;;5.97;70.25
39443;BME280;25147;52.142;9.960;2023-04-28T02:29:43;100120.09;;;3.13;70.32
39443;BME280;25147;52.142;9.960;2023-04-28T02:32:10;100208.50;;;3.61;70.85
39443;BME280;25147;52.142;9.960;2023-04-28T02:34:38;100337.91;;;4.57;72.29
39443;BME280;25147;52.142;9.960;2023-04-28T02:37:05;100564.50;;;5.85;71.65
39443;BME280;25147;52.142;9.960;2023-04-28T02:39:32;100460.28;;;5.28;71.48
39443;BME280;25147;52.142;9.960;2023-04-28T02:41:59;100576.59;;;5.81;72.24
39443;BME280;25147;52.142;9.960;2023-04-28T02:44:26;100561.84;;;5.79;72.10
39443;BME280;25147;52.142;9.960;2023-04-28T02:46:52;100550.59;;;5.77;72.14
39443;BME280;25147;52.142;9.960;2023-04-28T02:49:19;100548.84;;;5.74;72.88
39443;BME280;25147;52.142;9.960;2023-04-28T02:51:47;100418.53;;;4.94;72.09
39443;BME280;25147;52.142;9.960;2023-04-28T02:54:14;100273.47;;;3.87;72.35
39443;BME280;25147;52.142;9.960;2023-04-28T02:56:41;100541.03;;;5.68;72.38
39443;BME280;25147;52.142;9.960;2023-04-28T02:59:07;100541.88;;;5.67;73.02
39443;BME280;25147;52.142;9.960;2023-04-28T03:01:34;100266.50;;;3.85;72.86
39443;BME280;25147;52.142;9.960;2023-04-28T03:04:01;100539.22;;;5.61;73.88
39443;BME280;25147;52.142;9.960;2023-04-28T03:06:28;100480.16;;;5.21;74.28
39443;BME280;25147;52.142;9.960;2023-04-28T03:08:57;100238.78;;;3.67;74.46
39443;BME280;25147;52.142;9.960;2023-04-28T03:11:24;100427.19;;;4.92;74.97
39443;BME280;25147;52.142;9.960;2023-04-28T03:13:50;100472.34;;;5.15;75.21
39443;BME280;25147;52.142;9.960;2023-04-28T03:16:17;100519.22;;;5.43;75.51
39443;BME280;25147;52.142;9.960;2023-04-28T03:18:44;100471.47;;;5.16;75.67
39443;BME280;25147;52.142;9.960;2023-04-28T03:21:11;100521.78;;;5.38;75.80
39443;BME280;25147;52.142;9.960;2023-04-28T03:23:37;100460.13;;;5.03;75.80
39443;BME280;25147;52.142;9.960;2023-04-28T03:26:06;100514.84;;;5.31;75.70
39443;BME280;25147;52.142;9.960;2023-04-28T03:28:33;100507.88;;;5.29;75.69
39443;BME280;25147;52.142;9.960;2023-04-28T03:31:00;100515.66;;;5.26;75.95
39443;BME280;25147;52.142;9.960;2023-04-28T03:33:27;100061.75;;;2.51;75.45
39443;BME280;25147;52.142;9.960;2023-04-28T03:35:54;100534.63;;;5.18;75.38
39443;BME280;25147;52.142;9.960;2023-04-28T03:38:21;100413.09;;;4.57;75.47
39443;BME280;25147;52.142;9.960;2023-04-28T03:40:48;100499.09;;;5.13;76.00
39443;BME280;25147;52.142;9.960;2023-04-28T03:43:16;100154.53;;;3.09;75.96
39443;BME280;25147;52.142;9.960;2023-04-28T03:45:43;100390.59;;;4.53;76.45
39443;BME280;25147;52.142;9.960;2023-04-28T03:48:10;100130.13;;;2.83;76.33
39443;BME280;25147;52.142;9.960;2023-04-28T03:50:37;100310.72;;;4.05;77.07
39443;BME280;25147;52.142;9.960;2023-04-28T03:53:05;100488.72;;;5.10;77.29
39443;BME280;25147;52.142;9.960;2023-04-28T03:55:33;100400.13;;;4.57;77.42
39443;BME280;25147;52.142;9.960;2023-04-28T03:57:59;100079.94;;;2.60;77.52
39443;BME280;25147;52.142;9.960;2023-04-28T04:00:28;100320.19;;;4.02;76.99
39443;BME280;25147;52.142;9.960;2023-04-28T04:02:55;100384.53;;;4.51;78.17
39443;BME280;25147;52.142;9.960;2023-04-28T04:05:21;100263.94;;;3.83;77.65
39443;BME280;25147;52.142;9.960;2023-04-28T04:07:48;100335.00;;;4.16;77.47
39443;BME280;25147;52.142;9.960;2023-04-28T04:10:15;100387.97;;;4.52;77.68
39443;BME280;25147;52.142;9.960;2023-04-28T04:12:42;100428.91;;;4.87;77.82
39443;BME280;25147;52.142;9.960;2023-04-28T04:15:10;100186.66;;;3.31;77.56
39443;BME280;25147;52.142;9.960;2023-04-28T04:17:38;100468.03;;;5.20;78.07
39443;BME280;25147;52.142;9.960;2023-04-28T04:20:06;100453.28;;;5.12;78.89
39443;BME280;25147;52.142;9.960;2023-04-28T04:22:33;100401.25;;;4.89;79.75
39443;BME280;25147;52.142;9.960;2023-04-28T04:25:00;100355.22;;;4.63;79.66
39443;BME280;25147;52.142;9.960;2023-04-28T04:27:27;100364.75;;;4.64;79.19
39443;BME280;25147;52.142;9.960;2023-04-28T04:29:54;100467.22;;;5.31;78.64
39443;BME280;25147;52.142;9.960;2023-04-28T04:32:21;100269.31;;;4.11;78.30
39443;BME280;25147;52.142;9.960;2023-04-28T04:34:49;100466.41;;;5.33;77.92
39443;BME280;25147;52.142;9.960;2023-04-28T04:37:16;100312.63;;;4.26;77.89
39443;BME280;25147;52.142;9.960;2023-04-28T04:39:43;100143.63;;;3.39;77.51
39443;BME280;25147;52.142;9.960;2023-04-28T04:42:10;100258.91;;;4.05;77.49
39443;BME280;25147;52.142;9.960;2023-04-28T04:44:37;100135.97;;;3.50;76.85
39443;BME280;25147;52.142;9.960;2023-04-28T04:47:04;100474.25;;;5.49;77.24
39443;BME280;25147;52.142;9.960;2023-04-28T04:49:30;100198.34;;;3.89;77.00
39443;BME280;25147;52.142;9.960;2023-04-28T04:51:59;100227.03;;;4.13;76.74
39443;BME280;25147;52.142;9.960;2023-04-28T04:54:26;100466.47;;;5.50;76.84
39443;BME280;25147;52.142;9.960;2023-04-28T04:56:52;100149.81;;;3.60;77.28
39443;BME280;25147;52.142;9.960;2023-04-28T04:59:21;100458.69;;;5.50;77.18
39443;BME280;25147;52.142;9.960;2023-04-28T05:01:48;100026.00;;;2.99;76.71
39443;BME280;25147;52.142;9.960;2023-04-28T05:04:15;100447.44;;;5.53;76.87
39443;BME280;25147;52.142;9.960;2023-04-28T05:06:42;100353.75;;;4.99;76.80
39443;BME280;25147;52.142;9.960;2023-04-28T05:09:10;100087.53;;;3.37;77.17
39443;BME280;25147;52.142;9.960;2023-04-28T05:11:37;100197.59;;;3.99;77.07
39443;BME280;25147;52.142;9.960;2023-04-28T05:14:04;100213.97;;;3.95;76.99
39443;BME280;25147;52.142;9.960;2023-04-28T05:16:31;100446.63;;;5.60;77.52
39443;BME280;25147;52.142;9.960;2023-04-28T05:18:58;100351.19;;;5.05;77.41
39443;BME280;25147;52.142;9.960;2023-04-28T05:21:25;100438.84;;;5.66;77.54
39443;BME280;25147;52.142;9.960;2023-04-28T05:23:52;100455.25;;;5.59;77.85
39443;BME280;25147;52.142;9.960;2023-04-28T05:26:20;100217.66;;;4.35;77.35
39443;BME280;25147;52.142;9.960;2023-04-28T05:28:47;100481.34;;;5.80;77.40
39443;BME280;25147;52.142;9.960;2023-04-28T05:31:14;100137.97;;;3.94;76.97
39443;BME280;25147;52.142;9.960;2023-04-28T05:33:41;100180.53;;;4.32;77.05
39443;BME280;25147;52.142;9.960;2023-04-28T05:36:08;100131.19;;;4.16;77.14
39443;BME280;25147;52.142;9.960;2023-04-28T05:38:35;100285.44;;;5.08;77.49
39443;BME280;25147;52.142;9.960;2023-04-28T05:41:02;100062.84;;;3.88;77.46
39443;BME280;25147;52.142;9.960;2023-04-28T05:43:30;100061.06;;;3.82;77.39
39443;BME280;25147;52.142;9.960;2023-04-28T05:45:57;100308.91;;;5.37;77.29
39443;BME280;25147;52.142;9.960;2023-04-28T05:48:24;100065.41;;;3.79;77.07
39443;BME280;25147;52.142;9.960;2023-04-28T05:50:51;100441.66;;;6.28;77.13
39443;BME280;25147;52.142;9.960;2023-04-28T05:53:18;100191.13;;;4.87;75.99
39443;BME280;25147;52.142;9.960;2023-04-28T05:55:45;100339.28;;;5.66;75.71
39443;BME280;25147;52.142;9.960;2023-04-28T05:58:12;100424.34;;;6.42;76.26
39443;BME280;25147;52.142;9.960;2023-04-28T06:00:41;100278.66;;;5.53;76.02
39443;BME280;25147;52.142;9.960;2023-04-28T06:03:08;100372.34;;;6.36;76.12
39443;BME280;25147;52.142;9.960;2023-04-28T06:05:35;100427.84;;;6.66;76.07
39443;BME280;25147;52.142;9.960;2023-04-28T06:08:02;100141.03;;;5.10;75.27
39443;BME280;25147;52.142;9.960;2023-04-28T06:10:29;100393.13;;;6.74;75.16
39443;BME280;25147;52.142;9.960;2023-04-28T06:12:56;100264.91;;;6.17;74.61
39443;BME280;25147;52.142;9.960;2023-04-28T06:15:23;100380.09;;;6.77;73.96
39443;BME280;25147;52.142;9.960;2023-04-28T06:17:51;100396.53;;;7.09;73.94
39443;BME280;25147;52.142;9.960;2023-04-28T06:20:18;100247.56;;;6.23;73.69
39443;BME280;25147;52.142;9.960;2023-04-28T06:22:45;100392.13;;;7.26;73.63
39443;BME280;25147;52.142;9.960;2023-04-28T06:25:12;100019.94;;;5.10;72.54
39443;BME280;25147;52.142;9.960;2023-04-28T06:27:39;100234.50;;;6.50;72.39
39443;BME280;25147;52.142;9.960;2023-04-28T06:30:07;100094.28;;;5.63;71.84
39443;BME280;25147;52.142;9.960;2023-04-28T06:32:34;100383.31;;;7.64;71.02
39443;BME280;25147;52.142;9.960;2023-04-28T06:35:02;100301.03;;;7.25;69.47
39443;BME280;25147;52.142;9.960;2023-04-28T06:37:29;99933.44;;;5.22;68.39
39443;BME280;25147;52.142;9.960;2023-04-28T06:39:56;100393.53;;;8.02;67.13
39443;BME280;25147;52.142;9.960;2023-04-28T06:42:23;100383.91;;;8.12;67.23
39443;BME280;25147;52.142;9.960;2023-04-28T06:44:50;100140.69;;;6.88;65.70
39443;BME280;25147;52.142;9.960;2023-04-28T06:47:16;100394.13;;;8.46;64.36
39443;BME280;25147;52.142;9.960;2023-04-28T06:49:43;100388.84;;;8.52;64.21
39443;BME280;25147;52.142;9.960;2023-04-28T06:52:13;100263.34;;;7.82;64.05
39443;BME280;25147;52.142;9.960;2023-04-28T06:54:40;100398.16;;;8.81;63.77
39443;BME280;25147;52.142;9.960;2023-04-28T06:57:07;100398.09;;;8.90;63.30
39443;BME280;25147;52.142;9.960;2023-04-28T06:59:34;100277.69;;;8.33;62.86
39443;BME280;25147;52.142;9.960;2023-04-28T07:02:03;100323.31;;;8.83;63.58
39443;BME280;25147;52.142;9.960;2023-04-28T07:04:29;100245.41;;;8.49;62.43
39443;BME280;25147;52.142;9.960;2023-04-28T07:06:56;100373.03;;;9.50;60.80
39443;BME280;25147;52.142;9.960;2023-04-28T07:09:25;100111.06;;;8.07;60.54
39443;BME280;25147;52.142;9.960;2023-04-28T07:11:51;100388.41;;;9.74;60.04
39443;BME280;25147;52.142;9.960;2023-04-28T07:14:21;100424.00;;;9.84;59.86
39443;BME280;25147;52.142;9.960;2023-04-28T07:16:51;100366.34;;;9.95;59.54
39443;BME280;25147;52.142;9.960;2023-04-28T07:19:21;100372.34;;;10.00;59.21
39443;BME280;25147;52.142;9.960;2023-04-28T07:21:57;100292.03;;;9.51;59.24
39443;BME280;25147;52.142;9.960;2023-04-28T07:24:29;99920.44;;;7.63;57.54
39443;BME280;25147;52.142;9.960;2023-04-28T07:26:55;100105.69;;;8.92;57.35
39443;BME280;25147;52.142;9.960;2023-04-28T07:29:25;99914.06;;;7.86;56.60
39443;BME280;25147;52.142;9.960;2023-04-28T07:32:01;100183.75;;;9.68;55.86
39443;BME280;25147;52.142;9.960;2023-04-28T07:34:32;100079.88;;;9.28;55.80
39443;BME280;25147;52.142;9.960;2023-04-28T07:36:59;100352.28;;;11.07;55.51
39443;BME280;25147;52.142;9.960;2023-04-28T07:39:30;100352.00;;;11.20;54.47
39443;BME280;25147;52.142;9.960;2023-04-28T07:42:01;100107.69;;;9.81;54.40
39443;BME280;25147;52.142;9.960;2023-04-28T07:44:28;100355.88;;;11.44;54.17
39443;BME280;25147;52.142;9.960;2023-04-28T07:46:55;100330.81;;;11.31;53.09
39443;BME280;25147;52.142;9.960;2023-04-28T07:49:22;100231.25;;;10.89;53.34
39443;BME280;25147;52.142;9.960;2023-04-28T07:51:49;100128.66;;;10.25;53.07
39443;BME280;25147;52.142;9.960;2023-04-28T07:54:18;100304.44;;;11.39;52.58
39443;BME280;25147;52.142;9.960;2023-04-28T07:56:46;99999.00;;;9.70;52.82
39443;BME280;25147;52.142;9.960;2023-04-28T07:59:13;100255.78;;;11.27;52.53
39443;BME280;25147;52.142;9.960;2023-04-28T08:01:40;100091.91;;;10.34;52.22
39443;BME280;25147;52.142;9.960;2023-04-28T08:04:07;100205.94;;;11.29;52.14
39443;BME280;25147;52.142;9.960;2023-04-28T08:06:34;100325.63;;;12.09;51.69
39443;BME280;25147;52.142;9.960;2023-04-28T08:09:01;100112.91;;;10.72;51.53
39443;BME280;25147;52.142;9.960;2023-04-28T08:11:30;99987.78;;;10.07;51.68
39443;BME280;25147;52.142;9.960;2023-04-28T08:13:59;100210.78;;;11.47;51.99
39443;BME280;25147;52.142;9.960;2023-04-28T08:16:30;100321.53;;;12.33;51.63
39443;BME280;25147;52.142;9.960;2023-04-28T08:18:57;100150.41;;;11.50;51.41
39443;BME280;25147;52.142;9.960;2023-04-28T08:21:24;100171.28;;;11.55;51.13
39443;BME280;25147;52.142;9.960;2023-04-28T08:24:09;100333.72;;;12.70;51.20
39443;BME280;25147;52.142;9.960;2023-04-28T08:26:36;100038.59;;;11.13;51.41
39443;BME280;25147;52.142;9.960;2023-04-28T08:29:05;100229.22;;;12.17;50.62
39443;BME280;25147;52.142;9.960;2023-04-28T08:31:32;100320.91;;;12.91;50.65
39443;BME280;25147;52.142;9.960;2023-04-28T08:33:58;100319.03;;;12.94;50.59
39443;BME280;25147;52.142;9.960;2023-04-28T08:36:25;100312.13;;;12.92;50.67
39443;BME280;25147;52.142;9.960;2023-04-28T08:38:56;100326.72;;;13.02;50.41
39443;BME280;25147;52.142;9.960;2023-04-28T08:41:24;100260.34;;;12.64;50.10
39443;BME280;25147;52.142;9.960;2023-04-28T08:44:00;100310.44;;;12.89;50.40
39443;BME280;25147;52.142;9.960;2023-04-28T08:46:29;100214.84;;;12.31;51.39
39443;BME280;25147;52.142;9.960;2023-04-28T08:49:00;100269.16;;;12.61;51.39
39443;BME280;25147;52.142;9.960;2023-04-28T08:51:36;100069.22;;;11.47;50.82
39443;BME280;25147;52.142;9.960;2023-04-28T08:54:04;100161.31;;;12.05;50.57
39443;BME280;25147;52.142;9.960;2023-04-28T08:56:32;100306.56;;;13.02;50.54
39443;BME280;25147;52.142;9.960;2023-04-28T08:59:01;100291.75;;;13.00;50.32
39443;BME280;25147;52.142;9.960;2023-04-28T09:01:36;100298.84;;;12.96;50.10
39443;BME280;25147;52.142;9.960;2023-04-28T09:04:03;100294.34;;;13.01;50.36
39443;BME280;25147;52.142;9.960;2023-04-28T09:06:32;100294.19;;;13.06;50.61
39443;BME280;25147;52.142;9.960;2023-04-28T09:09:23;100290.41;;;13.16;50.28
39443;BME280;25147;52.142;9.960;2023-04-28T09:11:54;100289.28;;;13.25;50.80
39443;BME280;25147;52.142;9.960;2023-04-28T09:14:26;100294.28;;;13.34;50.66
39443;BME280;25147;52.142;9.960;2023-04-28T09:16:55;100289.59;;;13.46;50.60
39443;BME280;25147;52.142;9.960;2023-04-28T09:19:23;100290.97;;;13.57;51.41
39443;BME280;25147;52.142;9.960;2023-04-28T09:21:51;100192.44;;;13.11;51.21
39443;BME280;25147;52.142;9.960;2023-04-28T09:24:30;99848.78;;;11.25;50.88
39443;BME280;25147;52.142;9.960;2023-04-28T09:26:58;100266.53;;;13.82;50.83
39443;BME280;25147;52.142;9.960;2023-04-28T09:29:27;100034.91;;;12.50;50.56
39443;BME280;25147;52.142;9.960;2023-04-28T09:32:11;100278.22;;;14.00;49.78
39443;BME280;25147;52.142;9.960;2023-04-28T09:34:41;100262.81;;;13.88;49.85
39443;BME280;25147;52.142;9.960;2023-04-28T09:37:14;99942.41;;;11.82;50.26
39443;BME280;25147;52.142;9.960;2023-04-28T09:39:43;99794.72;;;10.91;50.65
39443;BME280;25147;52.142;9.960;2023-04-28T09:42:09;100039.66;;;12.37;51.43
39443;BME280;25147;52.142;9.960;2023-04-28T09:44:36;100143.63;;;13.02;51.73
39443;BME280;25147;52.142;9.960;2023-04-28T09:47:18;100018.72;;;12.36;52.13
39443;BME280;25147;52.142;9.960;2023-04-28T09:49:52;100260.41;;;13.81;51.94
39443;BME280;25147;52.142;9.960;2023-04-28T09:52:20;99985.22;;;12.44;52.26
39443;BME280;25147;52.142;9.960;2023-04-28T09:54:48;100150.66;;;13.58;51.73
39443;BME280;25147;52.142;9.960;2023-04-28T09:57:16;100257.91;;;14.30;51.80
39443;BME280;25147;52.142;9.960;2023-04-28T09:59:47;100013.84;;;12.80;50.93
39443;BME280;25147;52.142;9.960;2023-04-28T10:02:17;100250.31;;;14.48;50.90
39443;BME280;25147;52.142;9.960;2023-04-28T10:04:45;100244.06;;;14.50;50.49
39443;BME280;25147;52.142;9.960;2023-04-28T10:07:13;100206.31;;;14.24;50.44
39443;BME280;25147;52.142;9.960;2023-04-28T10:09:41;100129.25;;;13.69;50.54
39443;BME280;25147;52.142;9.960;2023-04-28T10:12:12;100082.94;;;13.38;51.09
39443;BME280;25147;52.142;9.960;2023-04-28T10:14:40;100113.28;;;13.49;51.33
39443;BME280;25147;52.142;9.960;2023-04-28T10:17:09;100217.41;;;13.82;50.97
39443;BME280;25147;52.142;9.960;2023-04-28T10:19:38;100114.28;;;13.16;51.20
39443;BME280;25147;52.142;9.960;2023-04-28T10:22:18;100275.69;;;13.97;51.49
39443;BME280;25147;52.142;9.960;2023-04-28T10:24:58;100109.66;;;12.96;51.07
39443;BME280;25147;52.142;9.960;2023-04-28T10:27:33;99958.00;;;11.89;51.67
39443;BME280;25147;52.142;9.960;2023-04-28T10:30:11;100255.22;;;13.52;52.06
39443;BME280;25147;52.142;9.960;2023-04-28T10:32:38;100176.31;;;12.94;52.36
39443;BME280;25147;52.142;9.960;2023-04-28T10:35:42;100253.06;;;13.35;53.00
39443;BME280;25147;52.142;9.960;2023-04-28T10:38:11;100234.38;;;13.14;53.48
39443;BME280;25147;52.142;9.960;2023-04-28T10:40:39;100192.56;;;12.77;53.22
39443;BME280;25147;52.142;9.960;2023-04-28T10:43:07;100138.28;;;12.48;53.51
39443;BME280;25147;52.142;9.960;2023-04-28T10:46:00;100246.81;;;13.09;53.78
39443;BME280;25147;52.142;9.960;2023-04-28T10:51:36;100142.25;;;12.30;55.06
39443;BME280;25147;52.142;9.960;2023-04-28T10:54:10;100241.84;;;12.98;55.16
39443;BME280;25147;52.142;9.960;2023-04-28T10:56:41;100232.25;;;12.97;55.59
39443;BME280;25147;52.142;9.960;2023-04-28T10:59:27;100064.44;;;11.97;55.80
39443;BME280;25147;52.142;9.960;2023-04-28T11:05:14;100234.16;;;13.22;55.70
39443;BME280;25147;52.142;9.960;2023-04-28T11:11:21;100234.63;;;13.64;54.79
39443;BME280;25147;52.142;9.960;2023-04-28T11:13:49;100197.19;;;13.56;53.95
39443;BME280;25147;52.142;9.960;2023-04-28T11:16:19;99935.47;;;12.11;53.97
39443;BME280;25147;52.142;9.960;2023-04-28T11:18:58;100219.72;;;13.92;53.77
39443;BME280;25147;52.142;9.960;2023-04-28T11:21:28;100214.91;;;14.04;53.46
39443;BME280;25147;52.142;9.960;2023-04-28T11:23:56;100191.97;;;14.08;53.11
39443;BME280;25147;52.142;9.960;2023-04-28T11:26:24;100112.19;;;13.81;53.23
39443;BME280;25147;52.142;9.960;2023-04-28T11:28:53;100191.97;;;14.58;53.46
39443;BME280;25147;52.142;9.960;2023-04-28T11:31:21;100198.09;;;14.84;52.41
39443;BME280;25147;52.142;9.960;2023-04-28T11:33:52;100160.72;;;14.73;51.55
39443;BME280;25147;52.142;9.960;2023-04-28T11:36:27;99869.53;;;13.25;52.19
39443;BME280;25147;52.142;9.960;2023-04-28T11:38:55;100177.78;;;15.32;50.38
39443;BME280;25147;52.142;9.960;2023-04-28T11:41:23;100194.47;;;15.54;49.98
39443;BME280;25147;52.142;9.960;2023-04-28T11:43:51;100120.50;;;15.13;50.60
39443;BME280;25147;52.142;9.960;2023-04-28T11:46:19;99978.53;;;14.36;50.03
39443;BME280;25147;52.142;9.960;2023-04-28T11:48:47;100045.88;;;14.67;49.79
39443;BME280;25147;52.142;9.960;2023-04-28T11:51:33;100048.34;;;14.72;49.60
39443;BME280;25147;52.142;9.960;2023-04-28T11:54:01;100138.72;;;15.19;50.41
39443;BME280;25147;52.142;9.960;2023-04-28T11:56:30;100189.63;;;15.43;50.35
39443;BME280;25147;52.142;9.960;2023-04-28T11:59:05;99816.59;;;13.11;50.63
39443;BME280;25147;52.142;9.960;2023-04-28T12:01:34;100178.06;;;15.24;51.32
39443;BME280;25147;52.142;9.960;2023-04-28T12:04:03;100185.66;;;15.10;51.65
39443;BME280;25147;52.142;9.960;2023-04-28T12:06:31;99779.09;;;12.57;52.26
39443;BME280;25147;52.142;9.960;2023-04-28T12:08:58;100183.50;;;14.97;52.83
39443;BME280;25147;52.142;9.960;2023-04-28T12:11:30;99919.34;;;13.30;53.46
39443;BME280;25147;52.142;9.960;2023-04-28T12:14:06;100056.97;;;13.79;54.17
39443;BME280;25147;52.142;9.960;2023-04-28T12:16:39;99972.03;;;13.25;54.56
39443;BME280;25147;52.142;9.960;2023-04-28T12:19:10;99883.91;;;12.63;55.22
39443;BME280;25147;52.142;9.960;2023-04-28T12:21:38;100181.50;;;14.32;55.76
39443;BME280;25147;52.142;9.960;2023-04-28T12:24:19;100178.38;;;14.20;56.56
39443;BME280;25147;52.142;9.960;2023-04-28T12:26:48;99995.66;;;13.00;57.06
39443;BME280;25147;52.142;9.960;2023-04-28T12:29:37;100176.25;;;14.07;57.72
39443;BME280;25147;52.142;9.960;2023-04-28T12:32:09;100127.47;;;13.70;59.14
39443;BME280;25147;52.142;9.960;2023-04-28T12:34:37;100089.81;;;13.42;63.11
39443;BME280;25147;52.142;9.960;2023-04-28T12:37:05;99954.94;;;12.60;63.56
39443;BME280;25147;52.142;9.960;2023-04-28T12:39:33;100127.75;;;13.62;66.31
39443;BME280;25147;52.142;9.960;2023-04-28T12:42:02;100179.75;;;13.80;67.54
39443;BME280;25147;52.142;9.960;2023-04-28T12:44:32;100175.84;;;13.65;68.95
39443;BME280;25147;52.142;9.960;2023-04-28T12:47:02;99996.00;;;12.33;70.49
39443;BME280;25147;52.142;9.960;2023-04-28T12:49:29;100203.47;;;13.52;72.27
39443;BME280;25147;52.142;9.960;2023-04-28T12:51:56;99987.44;;;12.28;72.92
39443;BME280;25147;52.142;9.960;2023-04-28T12:54:23;100114.91;;;12.96;72.47
39443;BME280;25147;52.142;9.960;2023-04-28T12:56:50;99961.34;;;11.94;73.08
39443;BME280;25147;52.142;9.960;2023-04-28T12:59:18;100177.94;;;13.26;73.11
39443;BME280;25147;52.142;9.960;2023-04-28T13:01:45;100166.03;;;13.14;72.38
39443;BME280;25147;52.142;9.960;2023-04-28T13:04:12;100182.75;;;13.13;71.64
39443;BME280;25147;52.142;9.960;2023-04-28T13:06:39;100175.84;;;13.09;72.08
39443;BME280;25147;52.142;9.960;2023-04-28T13:09:09;100100.22;;;12.61;72.69
39443;BME280;25147;52.142;9.960;2023-04-28T13:11:36;100108.31;;;12.53;73.21
39443;BME280;25147;52.142;9.960;2023-04-28T13:14:03;100163.78;;;13.02;72.05
39443;BME280;25147;52.142;9.960;2023-04-28T13:16:31;100159.34;;;13.04;72.01